Time;durP1;ratioP1;P1;durP2;ratioP2;P2;SDS_P1;SDS_P2;PMS_P1;PMS_P2;Temp;Humidity;BMP_temperature;BMP_pressure;BME280_temperature;BME280_humidity;BME280_pressure;Samples;Min_cycle;Max_cycle;Signal;HPM_P1;HPM_P2
2021/10/24 00:01:54;;;;;;;21.95;6.10;;;;;;;;;;5019422;28;20045;-81
2021/10/24 00:04:21;;;;;;;16.55;5.70;;;;;;;;;;5017047;28;20053;-81
2021/10/24 00:06:48;;;;;;;20.48;6.13;;;;;;;;;;5035706;28;20213;-81
2021/10/24 00:09:14;;;;;;;16.25;5.90;;;;;;;;;;4997256;28;20053;-81
2021/10/24 00:11:41;;;;;;;20.50;5.80;;;;;;;;;;4997352;28;20322;-81
2021/10/24 00:14:08;;;;;;;17.08;6.38;;;;;;;;;;4997314;28;20052;-81
2021/10/24 00:16:35;;;;;;;19.38;6.15;;;;;;;;;;5014851;28;20107;-82
2021/10/24 00:19:02;;;;;;;24.65;5.63;;;;;;;;;;4998286;28;20046;-82
2021/10/24 00:21:30;;;;;;;12.10;5.43;;;;;;;;;;5016331;28;20404;-82
2021/10/24 00:23:57;;;;;;;13.40;6.40;;;;;;;;;;5016318;28;20056;-81
2021/10/24 00:26:24;;;;;;;20.35;5.28;;;;;;;;;;5017062;28;20046;-81
2021/10/24 00:28:57;;;;;;;16.55;5.97;;;;;;;;;;5001642;28;20054;-81
2021/10/24 00:31:24;;;;;;;17.15;5.75;;;;;;;;;;5017107;28;20176;-81
2021/10/24 00:33:52;;;;;;;21.58;6.50;;;;;;;;;;5017350;28;20049;-81
2021/10/24 00:36:20;;;;;;;17.98;5.93;;;;;;;;;;5025306;28;20049;-81
2021/10/24 00:38:46;;;;;;;18.58;6.32;;;;;;;;;;5037735;28;20049;-82
2021/10/24 00:41:13;;;;;;;16.50;5.57;;;;;;;;;;5035592;28;20081;-81
2021/10/24 00:43:40;;;;;;;17.52;6.43;;;;;;;;;;5036180;28;20068;-81
2021/10/24 00:46:10;;;;;;;20.98;5.60;;;;;;;;;;5038998;28;20053;-81
2021/10/24 00:48:53;;;;;;;13.75;5.75;;;;;;;;;;5036133;28;20088;-81
2021/10/24 00:51:23;;;;;;;18.13;6.00;;;;;;;;;;5035991;28;20111;-82
2021/10/24 00:53:53;;;;;;;19.88;5.57;;;;;;;;;;5035484;28;20056;-81
2021/10/24 00:56:21;;;;;;;24.77;7.22;;;;;;;;;;5033660;28;20148;-82
2021/10/24 00:58:50;;;;;;;18.42;5.75;;;;;;;;;;5034821;28;20049;-81
2021/10/24 01:01:18;;;;;;;20.33;6.15;;;;;;;;;;5035368;28;20052;-81
2021/10/24 01:03:45;;;;;;;14.05;6.43;;;;;;;;;;5035907;28;20099;-81
2021/10/24 01:06:12;;;;;;;23.02;6.70;;;;;;;;;;5034338;28;20049;-82
2021/10/24 01:08:39;;;;;;;13.90;6.00;;;;;;;;;;5035048;28;20171;-81
2021/10/24 01:11:06;;;;;;;13.88;5.93;;;;;;;;;;5036600;28;20053;-81
2021/10/24 01:13:33;;;;;;;12.88;5.75;;;;;;;;;;5036440;28;20211;-81
2021/10/24 01:16:14;;;;;;;12.68;6.05;;;;;;;;;;5035077;28;20207;-82
2021/10/24 01:18:41;;;;;;;13.73;6.07;;;;;;;;;;5024248;28;20109;-82
2021/10/24 01:21:08;;;;;;;12.05;6.10;;;;;;;;;;5031773;28;20053;-82
2021/10/24 01:23:34;;;;;;;23.60;6.90;;;;;;;;;;5034724;28;20569;-81
2021/10/24 01:26:02;;;;;;;21.65;7.63;;;;;;;;;;5019267;28;20389;-81
2021/10/24 01:28:29;;;;;;;14.32;6.45;;;;;;;;;;5036448;28;20439;-81
2021/10/24 01:30:59;;;;;;;15.02;6.85;;;;;;;;;;5036364;28;20045;-82
2021/10/24 01:33:26;;;;;;;15.90;7.18;;;;;;;;;;5036778;28;20049;-82
2021/10/24 01:35:55;;;;;;;15.07;6.32;;;;;;;;;;5019482;28;20046;-82
2021/10/24 01:38:26;;;;;;;16.25;6.28;;;;;;;;;;5022092;28;20234;-81
2021/10/24 01:40:54;;;;;;;18.80;7.18;;;;;;;;;;5037477;28;20072;-81
2021/10/24 01:43:21;;;;;;;17.90;7.07;;;;;;;;;;5037123;28;20057;-81
2021/10/24 01:45:48;;;;;;;21.38;7.10;;;;;;;;;;5037913;28;20076;-82
2021/10/24 01:48:16;;;;;;;18.05;6.85;;;;;;;;;;5037575;28;20063;-81
2021/10/24 01:50:47;;;;;;;17.52;6.57;;;;;;;;;;5037842;28;20091;-81
2021/10/24 01:53:25;;;;;;;16.92;7.05;;;;;;;;;;5037087;28;20103;-82
2021/10/24 01:55:51;;;;;;;19.73;7.43;;;;;;;;;;5039501;28;20052;-82
2021/10/24 01:58:21;;;;;;;21.20;6.82;;;;;;;;;;5036564;28;20053;-82
2021/10/24 02:00:49;;;;;;;20.08;7.38;;;;;;;;;;5040097;28;20064;-82
2021/10/24 02:03:17;;;;;;;14.80;6.57;;;;;;;;;;5038131;28;20053;-82
2021/10/24 02:05:48;;;;;;;17.83;6.63;;;;;;;;;;5040123;28;20342;-81
2021/10/24 02:08:15;;;;;;;17.38;7.07;;;;;;;;;;5035209;28;20405;-80
2021/10/24 02:10:41;;;;;;;16.02;6.97;;;;;;;;;;5034220;28;20121;-81
2021/10/24 02:13:12;;;;;;;14.57;7.40;;;;;;;;;;5032847;28;20433;-80
2021/10/24 02:15:40;;;;;;;16.60;7.05;;;;;;;;;;5032572;28;20056;-81
2021/10/24 02:18:10;;;;;;;24.52;8.13;;;;;;;;;;5033665;28;20057;-80
2021/10/24 02:20:39;;;;;;;18.90;8.23;;;;;;;;;;5041893;28;20059;-81
2021/10/24 02:23:06;;;;;;;21.08;7.43;;;;;;;;;;5030886;28;20088;-81
2021/10/24 02:25:33;;;;;;;23.55;8.02;;;;;;;;;;5020290;28;20303;-81
2021/10/24 02:28:00;;;;;;;27.85;7.40;;;;;;;;;;5016035;28;20049;-80
2021/10/24 02:30:27;;;;;;;19.48;7.80;;;;;;;;;;5034790;28;20077;-81
2021/10/24 02:32:57;;;;;;;14.52;7.57;;;;;;;;;;5016359;28;20298;-81
2021/10/24 02:35:25;;;;;;;18.95;8.43;;;;;;;;;;5034280;28;20221;-81
2021/10/24 02:37:53;;;;;;;13.73;7.95;;;;;;;;;;5031272;28;20057;-81
2021/10/24 02:40:21;;;;;;;16.02;7.88;;;;;;;;;;5032312;28;20076;-81
2021/10/24 02:42:48;;;;;;;13.93;7.15;;;;;;;;;;5033159;28;20261;-80
2021/10/24 02:45:15;;;;;;;22.35;8.10;;;;;;;;;;5016368;28;20314;-80
2021/10/24 02:47:42;;;;;;;20.25;7.80;;;;;;;;;;5014412;28;20046;-80
2021/10/24 02:50:12;;;;;;;20.40;8.38;;;;;;;;;;5032366;28;20056;-81
2021/10/24 02:52:38;;;;;;;17.77;8.50;;;;;;;;;;5032950;28;20041;-80
2021/10/24 02:55:06;;;;;;;12.57;7.35;;;;;;;;;;5032122;28;20195;-81
2021/10/24 02:57:33;;;;;;;22.20;8.05;;;;;;;;;;5031316;28;20460;-81
2021/10/24 03:00:00;;;;;;;24.92;8.10;;;;;;;;;;5015183;28;20064;-81
2021/10/24 03:02:27;;;;;;;22.17;7.75;;;;;;;;;;5015031;28;20056;-81
2021/10/24 03:04:53;;;;;;;19.75;8.43;;;;;;;;;;5016876;28;20056;-81
2021/10/24 03:07:20;;;;;;;21.17;8.52;;;;;;;;;;5017812;28;20163;-80
2021/10/24 03:09:47;;;;;;;13.30;7.65;;;;;;;;;;5017460;28;20100;-80
2021/10/24 03:12:13;;;;;;;26.52;8.05;;;;;;;;;;5018738;28;20049;-81
2021/10/24 03:14:41;;;;;;;16.70;7.43;;;;;;;;;;5018434;28;20440;-81
2021/10/24 03:17:14;;;;;;;24.23;7.88;;;;;;;;;;5038323;28;20524;-80
2021/10/24 03:19:41;;;;;;;28.48;7.68;;;;;;;;;;5019408;28;20049;-81
2021/10/24 03:22:08;;;;;;;15.63;8.10;;;;;;;;;;5019759;28;20057;-80
2021/10/24 03:24:35;;;;;;;25.80;8.15;;;;;;;;;;5036828;28;20295;-80
2021/10/24 03:27:02;;;;;;;18.77;8.45;;;;;;;;;;5019005;28;20117;-81
2021/10/24 03:29:28;;;;;;;13.85;7.30;;;;;;;;;;5036920;28;20087;-80
2021/10/24 03:31:55;;;;;;;18.65;7.25;;;;;;;;;;5019807;28;20401;-82
2021/10/24 03:34:21;;;;;;;33.40;8.27;;;;;;;;;;5018636;28;20075;-81
2021/10/24 03:36:49;;;;;;;24.92;8.38;;;;;;;;;;5036283;28;20076;-81
2021/10/24 03:39:15;;;;;;;16.48;6.97;;;;;;;;;;5035473;28;20064;-81
2021/10/24 03:41:42;;;;;;;21.52;7.70;;;;;;;;;;5019196;28;20063;-81
2021/10/24 03:44:09;;;;;;;20.55;8.02;;;;;;;;;;5020017;28;20079;-81
2021/10/24 03:46:37;;;;;;;18.08;8.00;;;;;;;;;;5037142;28;20053;-81
2021/10/24 03:49:09;;;;;;;14.95;7.50;;;;;;;;;;5035573;28;20053;-80
2021/10/24 03:51:35;;;;;;;17.27;7.75;;;;;;;;;;5036539;28;20050;-81
2021/10/24 03:54:02;;;;;;;18.92;7.43;;;;;;;;;;5036565;28;20050;-81
2021/10/24 03:56:28;;;;;;;20.02;6.93;;;;;;;;;;5020432;28;20398;-81
2021/10/24 03:58:57;;;;;;;16.98;7.32;;;;;;;;;;5036354;28;20060;-81
2021/10/24 04:01:24;;;;;;;16.20;6.78;;;;;;;;;;5035669;28;20055;-80
2021/10/24 04:03:51;;;;;;;22.55;7.78;;;;;;;;;;5019245;28;20508;-81
2021/10/24 04:06:17;;;;;;;19.52;7.38;;;;;;;;;;5036489;28;20069;-80
2021/10/24 04:08:44;;;;;;;20.45;7.68;;;;;;;;;;5037555;28;20080;-80
2021/10/24 04:11:10;;;;;;;20.60;6.90;;;;;;;;;;5030223;28;20057;-80
2021/10/24 04:13:37;;;;;;;19.98;7.03;;;;;;;;;;5047446;28;20132;-81
2021/10/24 04:16:04;;;;;;;22.42;8.27;;;;;;;;;;5030669;28;20049;-81
2021/10/24 04:18:31;;;;;;;19.55;7.13;;;;;;;;;;5047956;28;20112;-81
2021/10/24 04:20:57;;;;;;;16.50;6.95;;;;;;;;;;5021741;28;20123;-81
2021/10/24 04:23:24;;;;;;;20.67;7.45;;;;;;;;;;5035735;28;20064;-81
2021/10/24 04:25:51;;;;;;;19.65;7.80;;;;;;;;;;5018559;28;20057;-81
2021/10/24 04:28:20;;;;;;;17.85;6.00;;;;;;;;;;5020083;28;20041;-81
2021/10/24 04:30:46;;;;;;;17.05;7.18;;;;;;;;;;5014435;28;20045;-81
2021/10/24 04:33:13;;;;;;;16.58;6.55;;;;;;;;;;5000451;28;20058;-81
2021/10/24 04:35:40;;;;;;;18.30;6.88;;;;;;;;;;4998342;28;20279;-81
2021/10/24 04:38:09;;;;;;;19.63;7.13;;;;;;;;;;5000597;28;20045;-82
2021/10/24 04:40:36;;;;;;;20.98;6.57;;;;;;;;;;5015641;28;20120;-81
2021/10/24 04:43:03;;;;;;;20.05;7.53;;;;;;;;;;5018519;28;20073;-81
2021/10/24 04:45:31;;;;;;;24.90;7.47;;;;;;;;;;5011580;28;20061;-81
2021/10/24 04:47:58;;;;;;;18.33;6.55;;;;;;;;;;5030708;28;20058;-81
2021/10/24 04:50:24;;;;;;;22.35;6.57;;;;;;;;;;4998654;28;20052;-81
2021/10/24 04:52:51;;;;;;;21.45;6.60;;;;;;;;;;4996990;28;20060;-81
2021/10/24 04:55:18;;;;;;;24.58;6.55;;;;;;;;;;5014922;28;20049;-81
2021/10/24 04:57:45;;;;;;;11.68;5.85;;;;;;;;;;4998493;28;20049;-82
2021/10/24 05:00:12;;;;;;;14.07;5.72;;;;;;;;;;5016818;28;20133;-81
2021/10/24 05:02:39;;;;;;;22.42;6.50;;;;;;;;;;5002467;28;20133;-82
2021/10/24 05:05:08;;;;;;;14.60;6.00;;;;;;;;;;5018368;28;20120;-81
2021/10/24 05:07:35;;;;;;;22.10;6.75;;;;;;;;;;5016874;28;20140;-81
2021/10/24 05:10:02;;;;;;;12.10;6.28;;;;;;;;;;5019037;28;20367;-82
2021/10/24 05:12:29;;;;;;;18.50;6.80;;;;;;;;;;5013800;28;20073;-81
2021/10/24 05:14:55;;;;;;;14.77;5.97;;;;;;;;;;5028784;28;20069;-81
2021/10/24 05:17:24;;;;;;;17.55;6.63;;;;;;;;;;4999958;28;20373;-81
2021/10/24 05:19:51;;;;;;;13.80;6.38;;;;;;;;;;5001489;28;20057;-81
2021/10/24 05:22:20;;;;;;;18.77;5.82;;;;;;;;;;5000328;28;20052;-81
2021/10/24 05:24:47;;;;;;;27.50;6.95;;;;;;;;;;5030561;28;20057;-81
2021/10/24 05:27:15;;;;;;;23.45;6.40;;;;;;;;;;4999096;28;20056;-81
2021/10/24 05:29:42;;;;;;;17.30;6.13;;;;;;;;;;4998054;28;20045;-81
2021/10/24 05:32:12;;;;;;;17.65;6.30;;;;;;;;;;4997615;28;20074;-82
2021/10/24 05:34:39;;;;;;;18.05;6.32;;;;;;;;;;4999887;28;20049;-81
2021/10/24 05:37:05;;;;;;;14.43;6.70;;;;;;;;;;4999335;28;20068;-83
2021/10/24 05:39:32;;;;;;;14.73;5.97;;;;;;;;;;5016857;28;20088;-83
2021/10/24 05:42:00;;;;;;;16.17;6.45;;;;;;;;;;5014920;28;20271;-84
2021/10/24 05:44:27;;;;;;;17.42;6.78;;;;;;;;;;5016463;28;20620;-81
2021/10/24 05:46:53;;;;;;;18.55;6.57;;;;;;;;;;4998115;28;20074;-81
2021/10/24 05:49:24;;;;;;;21.30;7.05;;;;;;;;;;5014753;28;20045;-81
2021/10/24 05:51:52;;;;;;;20.27;7.35;;;;;;;;;;4998637;28;20149;-81
2021/10/24 05:54:18;;;;;;;20.38;5.78;;;;;;;;;;4997681;28;20080;-81
2021/10/24 05:56:45;;;;;;;15.00;6.15;;;;;;;;;;4998817;28;20417;-81
2021/10/24 05:59:11;;;;;;;16.90;6.07;;;;;;;;;;5015310;28;20437;-81
2021/10/24 06:01:38;;;;;;;17.85;6.45;;;;;;;;;;5014101;28;20062;-82
2021/10/24 06:04:05;;;;;;;16.70;5.93;;;;;;;;;;5014988;28;20049;-81
2021/10/24 06:06:32;;;;;;;18.95;6.35;;;;;;;;;;5014232;28;20180;-81
2021/10/24 06:09:00;;;;;;;17.02;6.47;;;;;;;;;;4999054;28;20124;-80
2021/10/24 06:13:55;;;;;;;16.73;6.18;;;;;;;;;;5016355;28;20042;-80
2021/10/24 06:16:22;;;;;;;26.58;7.50;;;;;;;;;;5015941;28;20641;-80
2021/10/24 06:18:50;;;;;;;21.05;6.10;;;;;;;;;;5029868;28;20046;-81
2021/10/24 06:21:17;;;;;;;19.67;6.35;;;;;;;;;;5046621;28;20302;-80
2021/10/24 06:23:44;;;;;;;20.75;6.65;;;;;;;;;;5017436;28;20057;-81
2021/10/24 06:26:10;;;;;;;16.42;5.97;;;;;;;;;;5035503;28;20279;-80
2021/10/24 06:28:37;;;;;;;15.98;5.70;;;;;;;;;;5017506;28;20109;-81
2021/10/24 06:31:08;;;;;;;17.92;7.20;;;;;;;;;;5035912;28;20054;-81
2021/10/24 06:33:34;;;;;;;25.45;6.95;;;;;;;;;;5017966;28;20050;-81
2021/10/24 06:36:02;;;;;;;21.25;6.38;;;;;;;;;;5019752;28;20265;-80
2021/10/24 06:38:30;;;;;;;18.25;6.45;;;;;;;;;;5020000;28;20168;-80
2021/10/24 06:40:56;;;;;;;13.52;5.25;;;;;;;;;;5036723;28;20498;-81
2021/10/24 06:43:26;;;;;;;15.30;5.60;;;;;;;;;;5035957;28;20113;-80
2021/10/24 06:45:56;;;;;;;14.00;5.68;;;;;;;;;;5039841;28;20402;-80
2021/10/24 06:48:26;;;;;;;13.25;5.60;;;;;;;;;;5038230;28;20136;-80
2021/10/24 06:50:53;;;;;;;13.25;4.57;;;;;;;;;;5036367;28;20064;-80
2021/10/24 06:53:19;;;;;;;11.48;4.65;;;;;;;;;;5015487;28;20054;-81
2021/10/24 06:55:46;;;;;;;13.30;4.90;;;;;;;;;;5037461;28;20421;-80
2021/10/24 06:58:13;;;;;;;17.73;5.20;;;;;;;;;;5020435;28;20041;-81
2021/10/24 07:00:43;;;;;;;16.50;4.82;;;;;;;;;;5018838;28;20049;-81
2021/10/24 07:03:10;;;;;;;14.60;5.28;;;;;;;;;;5019942;28;20057;-80
2021/10/24 07:05:37;;;;;;;13.82;5.40;;;;;;;;;;5021025;28;20065;-81
2021/10/24 07:08:06;;;;;;;11.88;4.90;;;;;;;;;;5023722;28;20158;-81
2021/10/24 07:10:35;;;;;;;18.20;4.57;;;;;;;;;;5038011;28;20049;-81
2021/10/24 07:13:01;;;;;;;13.73;4.43;;;;;;;;;;5036826;28;20327;-81
2021/10/24 07:15:28;;;;;;;17.25;4.88;;;;;;;;;;5035978;28;20136;-81
2021/10/24 07:17:55;;;;;;;14.18;4.05;;;;;;;;;;5036121;28;20045;-81
2021/10/24 07:20:22;;;;;;;13.63;4.53;;;;;;;;;;5037098;28;20206;-81
2021/10/24 07:22:49;;;;;;;13.57;4.07;;;;;;;;;;5036784;28;20057;-81
2021/10/24 07:25:15;;;;;;;8.98;4.30;;;;;;;;;;5036395;28;20148;-81
2021/10/24 07:27:42;;;;;;;12.95;4.28;;;;;;;;;;5021570;28;20105;-81
2021/10/24 07:30:12;;;;;;;10.32;4.50;;;;;;;;;;5035011;28;20053;-82
2021/10/24 07:32:40;;;;;;;13.77;4.68;;;;;;;;;;5020066;28;20088;-81
2021/10/24 07:35:07;;;;;;;15.68;4.55;;;;;;;;;;5022172;28;20049;-81
2021/10/24 07:37:34;;;;;;;13.38;3.83;;;;;;;;;;5027441;28;20046;-81
2021/10/24 07:40:00;;;;;;;12.23;4.00;;;;;;;;;;5034886;28;20095;-81
2021/10/24 07:42:27;;;;;;;12.30;3.88;;;;;;;;;;5011488;28;20054;-81
2021/10/24 07:44:57;;;;;;;13.20;3.75;;;;;;;;;;5015206;28;20042;-82
2021/10/24 07:47:30;;;;;;;14.20;4.03;;;;;;;;;;5015325;28;20056;-82
2021/10/24 07:50:01;;;;;;;12.48;4.70;;;;;;;;;;4998783;28;20061;-82
2021/10/24 07:52:27;;;;;;;12.60;3.92;;;;;;;;;;4998411;28;20046;-81
2021/10/24 07:54:58;;;;;;;6.55;3.28;;;;;;;;;;4998677;28;20050;-82
2021/10/24 07:57:24;;;;;;;10.32;3.70;;;;;;;;;;4998114;28;20049;-82
2021/10/24 07:59:51;;;;;;;15.40;4.18;;;;;;;;;;5017058;28;20084;-82
2021/10/24 08:02:18;;;;;;;12.02;4.75;;;;;;;;;;5004749;28;20058;-81
2021/10/24 08:04:45;;;;;;;9.07;4.00;;;;;;;;;;5027528;28;20097;-81
2021/10/24 08:07:13;;;;;;;11.18;3.83;;;;;;;;;;5018054;28;20054;-82
2021/10/24 08:09:40;;;;;;;9.63;3.63;;;;;;;;;;4997522;28;20060;-82
2021/10/24 08:12:07;;;;;;;9.38;3.35;;;;;;;;;;5014139;28;20350;-82
2021/10/24 08:14:34;;;;;;;12.45;4.40;;;;;;;;;;5014201;28;20050;-81
2021/10/24 08:17:06;;;;;;;9.68;3.60;;;;;;;;;;5013492;28;20058;-80
2021/10/24 08:19:33;;;;;;;11.32;3.53;;;;;;;;;;5013443;28;20045;-81
2021/10/24 08:22:00;;;;;;;12.82;3.55;;;;;;;;;;4995852;28;20363;-81
2021/10/24 08:24:27;;;;;;;12.73;3.60;;;;;;;;;;4995315;28;20052;-81
2021/10/24 08:26:55;;;;;;;7.97;3.30;;;;;;;;;;5015349;28;20042;-80
2021/10/24 08:29:22;;;;;;;8.52;3.65;;;;;;;;;;5014163;28;20430;-80
2021/10/24 08:31:50;;;;;;;10.13;3.80;;;;;;;;;;4995582;28;20058;-80
2021/10/24 08:34:17;;;;;;;10.25;3.55;;;;;;;;;;4994147;28;20140;-81
2021/10/24 08:36:44;;;;;;;8.48;3.95;;;;;;;;;;5029842;28;20306;-81
2021/10/24 08:39:11;;;;;;;10.18;3.88;;;;;;;;;;5023412;28;20054;-81
2021/10/24 08:41:39;;;;;;;10.45;3.70;;;;;;;;;;4999193;28;20148;-82
2021/10/24 08:44:06;;;;;;;10.07;3.38;;;;;;;;;;5014562;28;20056;-81
2021/10/24 08:46:34;;;;;;;7.55;2.95;;;;;;;;;;4996375;28;20109;-81
2021/10/24 08:49:00;;;;;;;8.60;3.15;;;;;;;;;;5014292;28;20042;-81
2021/10/24 08:51:28;;;;;;;8.88;3.40;;;;;;;;;;4999018;28;20057;-81
2021/10/24 08:53:56;;;;;;;9.65;3.03;;;;;;;;;;4996506;28;20113;-82
2021/10/24 08:56:24;;;;;;;14.02;3.42;;;;;;;;;;4997555;28;20116;-82
2021/10/24 08:58:53;;;;;;;8.85;3.45;;;;;;;;;;5015427;28;20085;-81
2021/10/24 09:01:20;;;;;;;13.35;3.92;;;;;;;;;;4999182;28;20082;-82
2021/10/24 09:04:07;;;;;;;10.48;3.80;;;;;;;;;;4997712;28;20242;-82
2021/10/24 09:06:46;;;;;;;10.30;3.60;;;;;;;;;;4998043;28;20057;-82
2021/10/24 09:09:17;;;;;;;12.75;3.42;;;;;;;;;;4998527;28;20053;-80
2021/10/24 09:11:52;;;;;;;10.55;3.47;;;;;;;;;;5016697;28;20481;-81
2021/10/24 09:14:37;;;;;;;9.27;3.55;;;;;;;;;;4997596;28;20053;-81
2021/10/24 09:17:06;;;;;;;7.20;2.92;;;;;;;;;;5014424;28;20113;-81
2021/10/24 09:19:36;;;;;;;11.55;3.45;;;;;;;;;;5013385;28;20125;-81
2021/10/24 09:22:19;;;;;;;8.93;3.53;;;;;;;;;;4998362;28;20053;-81
2021/10/24 09:25:02;;;;;;;10.15;3.72;;;;;;;;;;5013335;28;20158;-82
2021/10/24 09:27:30;;;;;;;7.75;3.55;;;;;;;;;;4997253;28;20061;-81
2021/10/24 09:30:03;;;;;;;9.50;3.45;;;;;;;;;;4997011;28;20053;-81
2021/10/24 09:32:52;;;;;;;8.73;3.58;;;;;;;;;;4998693;28;20054;-82
2021/10/24 09:35:34;;;;;;;7.80;3.20;;;;;;;;;;4996199;28;20131;-82
2021/10/24 09:38:03;;;;;;;8.48;3.72;;;;;;;;;;4995378;28;20046;-82
2021/10/24 09:40:31;;;;;;;10.70;3.55;;;;;;;;;;5013805;28;20061;-82
2021/10/24 09:43:17;;;;;;;6.72;3.30;;;;;;;;;;5006672;28;20153;-82
2021/10/24 09:45:45;;;;;;;11.18;3.83;;;;;;;;;;5015213;28;20284;-82
2021/10/24 09:48:12;;;;;;;9.68;3.78;;;;;;;;;;5013541;28;20532;-82
2021/10/24 09:50:41;;;;;;;7.78;3.60;;;;;;;;;;5034084;28;20045;-82
2021/10/24 09:53:21;;;;;;;9.77;3.60;;;;;;;;;;5026751;28;20038;-82
2021/10/24 09:55:54;;;;;;;9.18;3.55;;;;;;;;;;5030549;28;20041;-82
2021/10/24 09:58:21;;;;;;;7.85;3.70;;;;;;;;;;5022380;28;20053;-82
2021/10/24 10:00:48;;;;;;;8.98;3.47;;;;;;;;;;5027329;28;20155;-82
2021/10/24 10:03:17;;;;;;;8.45;3.63;;;;;;;;;;5013464;28;20181;-82
2021/10/24 10:05:44;;;;;;;10.25;3.15;;;;;;;;;;5016344;28;20053;-82
2021/10/24 10:08:32;;;;;;;7.95;3.13;;;;;;;;;;5029396;28;20215;-82
2021/10/24 10:11:07;;;;;;;8.48;3.60;;;;;;;;;;5037207;28;20057;-82
2021/10/24 10:13:40;;;;;;;7.33;3.73;;;;;;;;;;5018342;28;20234;-83
2021/10/24 10:16:30;;;;;;;;;;;;;;;;;;5020950;28;20496;-82
2021/10/24 10:18:57;;;;;;;12.50;3.97;;;;;;;;;;5015547;28;20049;-82
2021/10/24 10:21:29;;;;;;;9.23;3.15;;;;;;;;;;5034049;28;20523;-82
2021/10/24 10:23:56;;;;;;;9.23;3.75;;;;;;;;;;5016406;28;20057;-82
2021/10/24 10:26:30;;;;;;;9.52;4.15;;;;;;;;;;5016544;28;20041;-82
2021/10/24 10:29:07;;;;;;;11.45;3.20;;;;;;;;;;5020704;28;20140;-82
2021/10/24 10:31:35;;;;;;;12.32;4.25;;;;;;;;;;5035225;28;20339;-82
2021/10/24 10:34:11;;;;;;;11.73;4.30;;;;;;;;;;5016159;28;20361;-82
2021/10/24 10:36:45;;;;;;;10.20;3.90;;;;;;;;;;5015604;28;20344;-82
2021/10/24 10:39:30;;;;;;;8.38;3.42;;;;;;;;;;5028221;28;20215;-83
2021/10/24 10:42:01;;;;;;;16.02;3.72;;;;;;;;;;5009067;28;20116;-82
2021/10/24 10:44:27;;;;;;;6.63;3.67;;;;;;;;;;5018714;28;20057;-82
2021/10/24 10:46:54;;;;;;;8.25;3.75;;;;;;;;;;5018660;28;20315;-82
2021/10/24 10:49:21;;;;;;;13.55;3.85;;;;;;;;;;5036715;28;20045;-82
2021/10/24 10:51:51;;;;;;;9.75;3.20;;;;;;;;;;5016995;28;20397;-82
2021/10/24 10:54:18;;;;;;;10.55;3.58;;;;;;;;;;5025192;28;20049;-82
2021/10/24 10:56:46;;;;;;;10.10;3.95;;;;;;;;;;5031514;28;20121;-82
2021/10/24 10:59:13;;;;;;;9.27;3.40;;;;;;;;;;5019598;28;20117;-82
2021/10/24 11:01:40;;;;;;;7.28;3.15;;;;;;;;;;5034466;28;20081;-82
2021/10/24 11:04:19;;;;;;;10.38;2.75;;;;;;;;;;5033512;28;20266;-82
2021/10/24 11:06:47;;;;;;;9.93;2.97;;;;;;;;;;5032516;28;20172;-82
2021/10/24 11:09:32;;;;;;;11.77;3.10;;;;;;;;;;5015427;28;20119;-83
2021/10/24 11:12:00;;;;;;;9.70;3.03;;;;;;;;;;5031926;28;20051;-82
2021/10/24 11:14:33;;;;;;;8.23;3.20;;;;;;;;;;5046301;28;20575;-82
2021/10/24 11:17:01;;;;;;;7.90;3.10;;;;;;;;;;5034903;28;20095;-82
2021/10/24 11:19:37;;;;;;;8.27;3.22;;;;;;;;;;5017026;28;20050;-82
2021/10/24 11:22:11;;;;;;;6.43;3.10;;;;;;;;;;5017394;28;20433;-83
2021/10/24 11:24:46;;;;;;;8.73;2.63;;;;;;;;;;5017147;28;20229;-82
2021/10/24 11:27:15;;;;;;;11.50;2.85;;;;;;;;;;5035211;28;20053;-82
2021/10/24 11:29:49;;;;;;;8.40;3.10;;;;;;;;;;5035108;28;20052;-82
2021/10/24 11:32:34;;;;;;;7.05;2.22;;;;;;;;;;5016632;28;20053;-83
2021/10/24 11:35:04;;;;;;;6.70;2.95;;;;;;;;;;5049412;28;20227;-82
2021/10/24 11:37:41;;;;;;;9.30;2.95;;;;;;;;;;5037316;28;20049;-82
2021/10/24 11:40:18;;;;;;;8.32;2.95;;;;;;;;;;5051049;28;20306;-82
2021/10/24 11:43:18;;;;;;;9.18;3.10;;;;;;;;;;5050123;28;20285;-82
2021/10/24 11:45:45;;;;;;;5.53;2.20;;;;;;;;;;4974383;28;20064;-83
2021/10/24 11:48:19;;;;;;;8.15;2.10;;;;;;;;;;5014358;28;20049;-83
2021/10/24 11:50:53;;;;;;;6.72;2.33;;;;;;;;;;5031621;28;20049;-81
2021/10/24 11:53:23;;;;;;;5.18;2.08;;;;;;;;;;5047190;28;20049;-82
2021/10/24 11:55:51;;;;;;;10.30;2.47;;;;;;;;;;5015068;28;20049;-82
2021/10/24 11:58:26;;;;;;;8.48;2.60;;;;;;;;;;5013591;28;20161;-82
2021/10/24 12:01:06;;;;;;;7.18;2.17;;;;;;;;;;5051709;28;20053;-82
2021/10/24 12:03:35;;;;;;;4.72;2.17;;;;;;;;;;5031024;28;20060;-82
2021/10/24 12:06:03;;;;;;;8.52;2.47;;;;;;;;;;5038594;28;20139;-82
2021/10/24 12:08:51;;;;;;;5.85;2.67;;;;;;;;;;5018771;28;20102;-81
2021/10/24 12:11:42;;;;;;;6.93;2.40;;;;;;;;;;5036749;28;20084;-82
2021/10/24 12:14:14;;;;;;;7.80;2.65;;;;;;;;;;5027630;28;20049;-82
2021/10/24 12:16:45;;;;;;;9.68;2.95;;;;;;;;;;5034946;28;20049;-82
2021/10/24 12:19:16;;;;;;;8.70;2.35;;;;;;;;;;5015761;28;20053;-82
2021/10/24 12:21:59;;;;;;;12.32;2.97;;;;;;;;;;5014200;28;20053;-82
2021/10/24 12:24:27;;;;;;;9.65;3.10;;;;;;;;;;5017654;28;20173;-82
2021/10/24 12:27:06;;;;;;;8.93;2.90;;;;;;;;;;5021697;28;20058;-82
2021/10/24 12:29:34;;;;;;;9.07;3.05;;;;;;;;;;5014862;28;20048;-82
2021/10/24 12:32:05;;;;;;;7.70;2.63;;;;;;;;;;5000055;28;20194;-82
2021/10/24 12:34:32;;;;;;;12.18;3.28;;;;;;;;;;5032688;28;20161;-83
2021/10/24 12:36:59;;;;;;;5.05;2.60;;;;;;;;;;5015624;28;20546;-82
2021/10/24 12:39:29;;;;;;;5.78;2.70;;;;;;;;;;5011910;28;20058;-82
2021/10/24 12:41:57;;;;;;;10.23;2.83;;;;;;;;;;5018277;28;20306;-82
2021/10/24 12:44:29;;;;;;;12.55;2.83;;;;;;;;;;5034115;28;20184;-81
2021/10/24 12:47:00;;;;;;;9.40;2.65;;;;;;;;;;5033214;28;20049;-82
2021/10/24 12:49:30;;;;;;;8.35;3.00;;;;;;;;;;5031691;28;20068;-81
2021/10/24 12:52:14;;;;;;;7.68;3.05;;;;;;;;;;5015686;28;20487;-81
2021/10/24 12:54:43;;;;;;;10.32;2.53;;;;;;;;;;5015468;28;20075;-82
2021/10/24 12:57:11;;;;;;;5.68;2.28;;;;;;;;;;5014154;28;20080;-82
2021/10/24 12:59:38;;;;;;;5.75;2.15;;;;;;;;;;5031948;28;20053;-82
2021/10/24 13:02:14;;;;;;;9.55;2.88;;;;;;;;;;5030882;28;20144;-82
2021/10/24 13:04:50;;;;;;;13.07;4.35;;;;;;;;;;5029965;28;20045;-82
2021/10/24 13:07:19;;;;;;;5.82;2.42;;;;;;;;;;5028423;28;20084;-82
2021/10/24 13:09:46;;;;;;;7.40;3.85;;;;;;;;;;5028639;28;20084;-81
2021/10/24 13:12:16;;;;;;;8.70;2.28;;;;;;;;;;5005601;28;20227;-81
2021/10/24 13:14:46;;;;;;;7.50;2.22;;;;;;;;;;5007034;28;20050;-81
2021/10/24 13:17:15;;;;;;;6.40;1.90;;;;;;;;;;4991407;28;20145;-81
2021/10/24 13:19:42;;;;;;;8.15;2.33;;;;;;;;;;5005204;28;20041;-81
2021/10/24 13:24:55;;;;;;;6.97;2.40;;;;;;;;;;5009378;28;20065;-81
2021/10/24 13:27:28;;;;;;;10.05;2.25;;;;;;;;;;5008083;28;20069;-81
2021/10/24 13:29:55;;;;;;;7.97;2.70;;;;;;;;;;5010404;28;20265;-81
2021/10/24 13:32:22;;;;;;;7.35;2.40;;;;;;;;;;5007234;28;20054;-81
2021/10/24 13:34:49;;;;;;;6.53;2.10;;;;;;;;;;5007688;28;20054;-81
2021/10/24 13:37:15;;;;;;;11.48;3.15;;;;;;;;;;5035063;28;20397;-81
2021/10/24 13:39:42;;;;;;;9.40;2.58;;;;;;;;;;5030817;28;20163;-81
2021/10/24 13:42:10;;;;;;;7.80;2.20;;;;;;;;;;5042555;28;20045;-82
2021/10/24 13:44:38;;;;;;;8.10;2.10;;;;;;;;;;5013594;28;20065;-81
2021/10/24 13:47:04;;;;;;;7.63;2.15;;;;;;;;;;5012809;28;20042;-82
2021/10/24 13:49:31;;;;;;;7.75;2.47;;;;;;;;;;5023344;28;20088;-81
2021/10/24 13:52:01;;;;;;;8.38;2.40;;;;;;;;;;5022246;28;20052;-81
2021/10/24 13:54:28;;;;;;;5.80;2.10;;;;;;;;;;5027321;28;20443;-81
2021/10/24 13:56:54;;;;;;;8.93;2.80;;;;;;;;;;5010235;28;20057;-81
2021/10/24 13:59:24;;;;;;;8.55;2.20;;;;;;;;;;5009460;28;20170;-81
2021/10/24 14:01:51;;;;;;;6.25;2.05;;;;;;;;;;5026437;28;20072;-81
2021/10/24 14:04:18;;;;;;;6.80;2.20;;;;;;;;;;5008834;28;20124;-81
2021/10/24 14:06:45;;;;;;;7.50;2.22;;;;;;;;;;5008981;28;20049;-81
2021/10/24 14:09:12;;;;;;;6.50;1.80;;;;;;;;;;5009457;28;20057;-81
2021/10/24 14:11:39;;;;;;;6.43;2.10;;;;;;;;;;5010836;28;20045;-82
2021/10/24 14:14:08;;;;;;;4.63;1.98;;;;;;;;;;5011832;28;20156;-81
2021/10/24 14:16:35;;;;;;;8.75;2.38;;;;;;;;;;5012779;28;20384;-81
2021/10/24 14:19:05;;;;;;;8.32;2.40;;;;;;;;;;5011932;28;20382;-82
2021/10/24 14:21:32;;;;;;;6.80;2.13;;;;;;;;;;5011597;28;20057;-81
2021/10/24 14:23:58;;;;;;;7.32;2.42;;;;;;;;;;4995409;28;20058;-81
2021/10/24 14:26:28;;;;;;;7.53;2.55;;;;;;;;;;5004905;28;20169;-81
2021/10/24 14:28:57;;;;;;;8.07;2.40;;;;;;;;;;5030511;28;20107;-82
2021/10/24 14:31:27;;;;;;;8.95;2.97;;;;;;;;;;5028379;28;20115;-81
2021/10/24 14:33:58;;;;;;;9.60;2.17;;;;;;;;;;5011962;28;20107;-81
2021/10/24 14:36:24;;;;;;;4.32;1.70;;;;;;;;;;5012722;28;20245;-81
2021/10/24 14:38:51;;;;;;;7.03;2.40;;;;;;;;;;5014587;28;20061;-82
2021/10/24 14:41:22;;;;;;;7.70;1.95;;;;;;;;;;5030323;28;20109;-81
2021/10/24 14:43:49;;;;;;;6.00;2.38;;;;;;;;;;5011578;28;20049;-81
2021/10/24 14:46:16;;;;;;;8.50;2.70;;;;;;;;;;5011845;28;20130;-81
2021/10/24 14:48:43;;;;;;;8.07;2.40;;;;;;;;;;5029614;28;20140;-82
2021/10/24 14:51:10;;;;;;;6.55;2.03;;;;;;;;;;5042494;28;20050;-82
2021/10/24 14:53:37;;;;;;;5.55;1.92;;;;;;;;;;5029734;28;20076;-81